Time;durP1;ratioP1;P1;durP2;ratioP2;P2;SDS_P1;SDS_P2;PMS_P1;PMS_P2;Temp;Humidity;BMP_temperature;BMP_pressure;BME280_temperature;BME280_humidity;BME280_pressure;Samples;Min_cycle;Max_cycle;Signal;HPM_P1;HPM_P2
2022/03/17 00:00:12;;;;;;;17.30;9.95;;;;;;;-7.70;100.00;102633.91;1796753;78;21273;-86
2022/03/17 00:02:40;;;;;;;16.42;10.20;;;;;;;-7.73;100.00;102631.67;1799068;79;21055;-86
2022/03/17 00:05:10;;;;;;;18.30;10.45;;;;;;;-7.80;100.00;102629.34;1783014;80;21586;-86
2022/03/17 00:07:41;;;;;;;17.85;10.65;;;;;;;-7.82;100.00;102632.24;1783687;80;21515;-91
2022/03/17 00:10:14;;;;;;;17.25;10.10;;;;;;;-7.86;100.00;102626.61;1783705;80;21574;-90
2022/03/17 00:12:44;;;;;;;20.27;10.53;;;;;;;-7.89;100.00;102634.11;1783940;80;21069;-90
2022/03/17 00:15:12;;;;;;;18.05;10.13;;;;;;;-7.93;100.00;102635.68;1758128;80;22429;-90
2022/03/17 00:17:43;;;;;;;16.05;9.78;;;;;;;-7.98;100.00;102632.11;1783973;80;21622;-90
2022/03/17 00:20:11;;;;;;;20.05;11.20;;;;;;;-8.01;100.00;102634.56;1784138;80;20994;-90
2022/03/17 00:22:39;;;;;;;19.05;10.78;;;;;;;-8.04;100.00;102632.76;1784174;80;21500;-88
2022/03/17 00:25:08;;;;;;;19.65;10.23;;;;;;;-8.05;100.00;102633.56;1757433;80;21250;-89
2022/03/17 00:27:35;;;;;;;21.45;9.85;;;;;;;-8.06;100.00;102634.40;1783580;80;21171;-89
2022/03/17 00:30:05;;;;;;;20.40;10.50;;;;;;;-8.08;100.00;102633.05;1783970;79;21554;-91
2022/03/17 00:32:34;;;;;;;;;;;;;;;-8.09;100.00;102633.86;1786460;80;21512;-90
2022/03/17 00:37:46;;;;;;;15.70;8.93;;;;;;;-8.08;100.00;102624.20;1783954;80;21226;-91
2022/03/17 00:40:13;;;;;;;16.07;9.08;;;;;;;-8.07;100.00;102628.88;1783609;80;21583;-90
2022/03/17 00:42:40;;;;;;;15.98;9.55;;;;;;;-8.09;100.00;102630.48;1783887;80;21065;-90
2022/03/17 00:45:11;;;;;;;15.08;8.90;;;;;;;-8.10;100.00;102626.23;1783916;80;21031;-87
2022/03/17 00:47:38;;;;;;;18.75;10.88;;;;;;;-8.14;100.00;102622.73;1784193;80;21089;-88
2022/03/17 00:50:08;;;;;;;18.42;9.48;;;;;;;-8.16;100.00;102627.29;1783827;80;21543;-88
2022/03/17 00:52:34;;;;;;;17.92;9.90;;;;;;;-8.21;100.00;102630.08;1783992;80;21085;-89
2022/03/17 00:55:05;;;;;;;18.10;11.18;;;;;;;-8.25;100.00;102632.87;1783656;80;21002;-90
2022/03/17 00:57:36;;;;;;;19.57;11.63;;;;;;;-8.27;100.00;102628.19;1783627;79;21026;-89
2022/03/17 01:00:05;;;;;;;18.55;10.18;;;;;;;-8.28;100.00;102636.16;1779814;79;21006;-89
2022/03/17 01:02:35;;;;;;;16.00;9.58;;;;;;;-8.28;100.00;102634.89;1706870;81;21798;-89
2022/03/17 01:05:04;;;;;;;16.12;9.78;;;;;;;-8.28;100.00;102634.89;1761729;81;21260;-90
2022/03/17 01:07:33;;;;;;;17.15;10.10;;;;;;;-8.25;100.00;102630.34;1761671;79;21108;-89
2022/03/17 01:10:01;;;;;;;16.97;10.03;;;;;;;-8.25;100.00;102627.81;1761786;81;21065;-90
2022/03/17 01:12:29;;;;;;;18.77;9.48;;;;;;;-8.27;100.00;102626.50;1761784;79;21056;-87
2022/03/17 01:14:57;;;;;;;16.93;10.08;;;;;;;-8.28;100.00;102632.36;1761647;80;20982;-87
2022/03/17 01:17:25;;;;;;;20.52;9.40;;;;;;;-8.29;100.00;102633.16;1761808;81;21072;-89
2022/03/17 01:19:53;;;;;;;12.85;8.20;;;;;;;-8.32;100.00;102633.08;1762165;81;21032;-89
2022/03/17 01:22:24;;;;;;;17.00;9.83;;;;;;;-8.33;100.00;102628.83;1761589;81;21037;-88
2022/03/17 01:24:51;;;;;;;17.15;9.38;;;;;;;-8.35;100.00;102630.84;1761453;79;21160;-88
2022/03/17 01:27:20;;;;;;;16.85;9.75;;;;;;;-8.40;100.00;102630.67;1761745;79;21247;-91
2022/03/17 01:29:48;;;;;;;19.92;10.58;;;;;;;-8.46;100.00;102626.67;1761565;81;21061;-92
2022/03/17 01:32:15;;;;;;;16.90;9.30;;;;;;;-8.49;100.00;102627.84;1761541;79;21020;-91
2022/03/17 01:34:42;;;;;;;17.10;9.95;;;;;;;-8.52;100.00;102626.46;1761722;81;21037;-93
2022/03/17 01:37:09;;;;;;;20.60;10.98;;;;;;;-8.55;100.00;102624.69;1761717;81;21053;-91
2022/03/17 01:39:37;;;;;;;17.32;10.00;;;;;;;-8.57;100.00;102627.55;1761803;81;21218;-90
2022/03/17 01:42:07;;;;;;;18.62;10.38;;;;;;;-8.62;100.00;102619.84;1761871;79;21724;-89
2022/03/17 01:44:38;;;;;;;19.07;10.20;;;;;;;-8.65;100.00;102624.77;1761706;81;21073;-91
2022/03/17 01:49:53;;;;;;;18.42;10.70;;;;;;;-8.65;100.00;102631.50;1762031;79;21080;-90
2022/03/17 01:52:20;;;;;;;19.95;10.48;;;;;;;-8.65;100.00;102631.50;1762086;79;21145;-90
2022/03/17 01:54:47;;;;;;;18.85;10.15;;;;;;;-8.67;100.00;102626.36;1729796;81;21076;-90
2022/03/17 01:57:15;;;;;;;20.20;10.75;;;;;;;-8.67;100.00;102629.30;1761962;79;21025;-91
2022/03/17 01:59:42;;;;;;;19.15;10.72;;;;;;;-8.65;100.00;102627.70;1761656;79;21045;-92
2022/03/17 02:02:12;;;;;;;18.67;10.08;;;;;;;-8.67;100.00;102624.25;1784850;79;21116;-90
2022/03/17 02:04:41;;;;;;;16.67;10.50;;;;;;;-8.69;100.00;102629.64;1787230;80;22841;-88
2022/03/17 02:07:11;;;;;;;19.48;11.03;;;;;;;-8.69;100.00;102629.23;1787393;80;21783;-89
2022/03/17 02:09:42;;;;;;;20.50;11.10;;;;;;;-8.70;100.00;102632.97;1787049;80;21943;-89
2022/03/17 02:15:09;;;;;;;19.20;10.18;;;;;;;-8.73;100.00;102648.88;1765012;80;21105;-89
2022/03/17 02:17:39;;;;;;;19.80;9.63;;;;;;;-8.76;100.00;102643.31;1786530;80;21767;-86
2022/03/17 02:20:11;;;;;;;18.62;9.75;;;;;;;-8.78;100.00;102646.18;1787176;80;21002;-86
2022/03/17 02:22:48;;;;;;;22.60;11.33;;;;;;;-8.80;100.00;102651.98;1786979;80;21025;-88
2022/03/17 02:25:34;;;;;;;18.80;9.65;;;;;;;-8.83;100.00;102650.59;1786818;80;21026;-88
2022/03/17 02:28:03;;;;;;;20.05;11.48;;;;;;;-8.87;100.00;102652.14;1787191;80;21813;-87
2022/03/17 02:30:35;;;;;;;19.85;11.12;;;;;;;-8.88;100.00;102646.24;1763630;80;21219;-87
2022/03/17 02:33:06;;;;;;;24.45;11.95;;;;;;;-8.85;100.00;102655.59;1782699;79;21010;-88
2022/03/17 02:35:37;;;;;;;17.48;10.53;;;;;;;-8.84;100.00;102656.05;1807667;79;21586;-88
2022/03/17 02:38:05;;;;;;;20.02;10.50;;;;;;;-8.83;100.00;102654.38;1808257;79;21112;-87
2022/03/17 02:40:36;;;;;;;18.73;10.75;;;;;;;-8.81;100.00;102651.52;1808126;79;21033;-88
2022/03/17 02:43:04;;;;;;;20.70;10.30;;;;;;;-8.80;100.00;102650.30;1808410;79;21905;-88
2022/03/17 02:45:33;;;;;;;18.77;11.33;;;;;;;-8.81;100.00;102643.94;1807805;79;20939;-89
2022/03/17 02:48:01;;;;;;;18.37;10.15;;;;;;;-8.81;100.00;102643.94;1807783;79;21089;-88
2022/03/17 02:50:28;;;;;;;20.35;10.85;;;;;;;-8.82;100.00;102645.62;1808021;79;21152;-88
2022/03/17 02:52:56;;;;;;;20.05;10.30;;;;;;;-8.85;100.00;102639.17;1808004;79;21005;-88
2022/03/17 02:55:23;;;;;;;20.82;9.85;;;;;;;-8.89;100.00;102645.78;1808030;79;21446;-87
2022/03/17 02:57:51;;;;;;;20.20;11.53;;;;;;;-8.91;100.00;102644.00;1807935;79;20959;-89
2022/03/17 03:00:18;;;;;;;16.30;8.85;;;;;;;-8.94;100.00;102647.66;1807559;79;21061;-86
2022/03/17 03:02:45;;;;;;;16.85;9.20;;;;;;;-8.95;100.00;102648.46;1798829;79;21664;-88
2022/03/17 03:05:12;;;;;;;22.25;10.88;;;;;;;-8.95;100.00;102650.98;1799242;78;21522;-88
2022/03/17 03:07:40;;;;;;;23.83;11.50;;;;;;;-8.97;100.00;102649.67;1799473;79;21143;-86
2022/03/17 03:10:07;;;;;;;20.23;11.03;;;;;;;-8.99;100.00;102655.05;1761346;81;21004;-88
2022/03/17 03:12:37;;;;;;;20.72;10.70;;;;;;;-9.00;100.00;102652.48;1774005;80;21079;-89
2022/03/17 03:15:06;;;;;;;19.85;10.40;;;;;;;-9.01;100.00;102646.55;1780155;80;21041;-87
2022/03/17 03:17:35;;;;;;;22.50;11.10;;;;;;;-9.01;100.00;102651.61;1736453;81;21087;-89
2022/03/17 03:20:04;;;;;;;21.00;10.40;;;;;;;-9.00;100.00;102656.27;1780349;80;21265;-87
2022/03/17 03:22:39;;;;;;;26.17;10.00;;;;;;;-9.01;100.00;102650.34;1761313;81;21154;-89
2022/03/17 03:25:02;;;;;;;16.65;8.78;;;;;;;-9.00;100.00;102665.95;1776220;80;20997;-88
2022/03/17 03:27:29;;;;;;;16.75;9.03;;;;;;;-9.01;100.00;102662.97;1746581;82;22076;-89
2022/03/17 03:29:58;;;;;;;13.95;8.75;;;;;;;-9.02;100.00;102660.01;1779860;80;21113;-90
2022/03/17 03:32:31;;;;;;;20.50;11.00;;;;;;;-9.04;100.00;102659.92;1776044;80;21128;-90
2022/03/17 03:34:56;;;;;;;18.55;10.50;;;;;;;-9.06;100.00;102667.87;1774711;79;21064;-87
2022/03/17 03:37:23;;;;;;;19.17;10.53;;;;;;;-9.07;100.00;102667.78;1774561;80;21042;-88
2022/03/17 03:39:56;;;;;;;22.90;10.75;;;;;;;-9.06;100.00;102674.56;1738065;82;21003;-89
2022/03/17 03:42:25;;;;;;;23.45;8.40;;;;;;;-9.07;100.00;102671.19;1738208;81;21516;-88
2022/03/17 03:44:53;;;;;;;17.92;9.95;;;;;;;-9.07;100.00;102668.66;1773811;80;21152;-90
2022/03/17 03:47:20;;;;;;;20.85;11.38;;;;;;;-9.08;100.00;102683.73;1737489;81;21062;-91
2022/03/17 03:49:47;;;;;;;20.37;10.53;;;;;;;-9.11;100.00;102681.95;1774776;80;21040;-91
2022/03/17 03:52:14;;;;;;;21.30;9.98;;;;;;;-9.14;100.00;102675.92;1774624;80;21029;-91
2022/03/17 03:54:42;;;;;;;15.15;8.53;;;;;;;-9.17;100.00;102674.55;1774293;80;21100;-91
2022/03/17 03:57:09;;;;;;;16.95;10.32;;;;;;;-9.20;100.00;102681.20;1773183;80;21846;-90
2022/03/17 03:59:38;;;;;;;22.10;10.55;;;;;;;-9.20;100.00;102683.72;1774190;80;21504;-88
2022/03/17 04:02:09;;;;;;;22.70;11.33;;;;;;;-9.21;100.00;102680.73;1768519;80;21041;-93
2022/03/17 04:04:40;;;;;;;18.42;10.58;;;;;;;-9.20;100.00;102685.37;1762738;81;20994;-91
2022/03/17 04:07:10;;;;;;;20.82;10.48;;;;;;;-9.19;100.00;102684.57;1764319;81;22187;-87
2022/03/17 04:09:41;;;;;;;18.55;10.18;;;;;;;-9.17;100.00;102684.23;1732740;82;21129;-90
2022/03/17 04:12:11;;;;;;;16.17;9.33;;;;;;;-9.16;100.00;102685.09;1709464;82;21025;-90
2022/03/17 04:14:39;;;;;;;13.62;6.37;;;;;;;-9.16;100.00;102690.13;1721524;82;21173;-90
2022/03/17 04:17:06;;;;;;;19.30;10.13;;;;;;;-9.16;100.00;102687.61;1762921;81;21035;-90
2022/03/17 04:19:35;;;;;;;22.95;11.20;;;;;;;-9.16;100.00;102696.06;1747195;82;21071;-91
2022/03/17 04:22:02;;;;;;;20.43;10.08;;;;;;;-9.16;100.00;102695.19;1762287;81;21198;-91
2022/03/17 04:24:30;;;;;;;19.70;10.05;;;;;;;-9.14;100.00;102699.91;1747031;82;21313;-92
2022/03/17 04:26:59;;;;;;;19.60;11.57;;;;;;;-9.11;100.00;102697.52;1762277;80;21574;-91
2022/03/17 04:29:28;;;;;;;20.37;10.48;;;;;;;-9.07;100.00;102698.95;1746519;82;21008;-89
2022/03/17 04:31:56;;;;;;;16.35;8.83;;;;;;;-9.02;100.00;102704.19;1747034;82;21557;-88
2022/03/17 04:34:25;;;;;;;18.25;9.63;;;;;;;-8.97;100.00;102709.02;1748925;81;21706;-89
2022/03/17 04:36:52;;;;;;;21.05;11.03;;;;;;;-8.93;100.00;102705.79;1746687;82;21031;-88
2022/03/17 04:39:20;;;;;;;16.48;8.33;;;;;;;-8.89;100.00;102705.50;1746403;80;21007;-89
2022/03/17 04:41:48;;;;;;;20.27;9.25;;;;;;;-8.85;100.00;102710.30;1747036;82;21090;-88
2022/03/17 04:44:15;;;;;;;15.00;8.78;;;;;;;-8.80;100.00;102703.75;1761159;81;21048;-87
2022/03/17 04:46:41;;;;;;;22.95;11.33;;;;;;;-8.76;100.00;102705.20;1741771;82;21920;-90
2022/03/17 04:49:10;;;;;;;15.00;6.67;;;;;;;-8.70;100.00;102711.28;1733534;81;46963;-89
2022/03/17 04:51:38;;;;;;;16.80;10.15;;;;;;;-8.66;100.00;102713.14;1761682;81;21410;-85
2022/03/17 04:54:16;;;;;;;19.98;10.10;;;;;;;-8.62;100.00;102709.52;1757324;81;21087;-88
2022/03/17 04:56:41;;;;;;;19.70;11.20;;;;;;;-8.59;100.00;102705.83;1748298;79;21019;-88
2022/03/17 04:59:08;;;;;;;18.57;10.23;;;;;;;-8.50;100.00;102713.30;1719112;82;21440;-87
2022/03/17 05:01:35;;;;;;;20.43;10.75;;;;;;;-8.46;100.00;102721.02;1704505;82;21077;-88
2022/03/17 05:04:03;;;;;;;24.85;11.30;;;;;;;-8.37;100.00;102718.37;1725662;82;21554;-87
2022/03/17 05:06:30;;;;;;;18.25;10.05;;;;;;;-8.32;100.00;102716.88;1730358;78;21084;-89
2022/03/17 05:08:59;;;;;;;18.77;9.63;;;;;;;-8.25;100.00;102727.66;1691881;83;21029;-88
2022/03/17 05:11:26;;;;;;;19.40;10.65;;;;;;;-8.19;100.00;102730.83;1701167;81;21233;-87
2022/03/17 05:13:53;;;;;;;20.62;9.83;;;;;;;-8.15;100.00;102731.41;1730802;81;21017;-87
2022/03/17 05:16:20;;;;;;;20.17;10.55;;;;;;;-8.09;100.00;102732.48;1750492;80;21017;-87
2022/03/17 05:18:47;;;;;;;21.12;10.72;;;;;;;-8.01;100.00;102734.45;1719656;81;21511;-88
2022/03/17 05:21:19;;;;;;;16.62;9.28;;;;;;;-7.91;100.00;102735.22;1750148;80;21060;-86
2022/03/17 05:23:44;;;;;;;15.72;8.38;;;;;;;-7.81;100.00;102736.00;1745943;80;21274;-88
2022/03/17 05:26:13;;;;;;;17.52;9.53;;;;;;;-7.76;100.00;102726.89;1750137;80;21617;-88
2022/03/17 05:28:42;;;;;;;22.67;10.08;;;;;;;-7.71;100.00;102730.00;1746259;80;21056;-88
2022/03/17 05:31:09;;;;;;;21.93;10.13;;;;;;;-7.66;100.00;102731.02;1720883;81;21507;-88
2022/03/17 05:33:36;;;;;;;19.00;11.40;;;;;;;-7.61;100.00;102726.58;1743740;81;21646;-87
2022/03/17 05:36:05;;;;;;;16.52;8.78;;;;;;;-7.55;100.00;102730.11;1726968;82;21260;-87
2022/03/17 05:38:32;;;;;;;18.85;9.30;;;;;;;-7.49;100.00;102727.81;1711823;82;21503;-88
2022/03/17 05:41:00;;;;;;;17.27;10.30;;;;;;;-7.41;100.00;102737.76;1714620;81;21081;-87
2022/03/17 05:43:27;;;;;;;17.95;9.30;;;;;;;-7.35;100.00;102730.39;1659615;84;21035;-87
2022/03/17 05:45:55;;;;;;;11.15;6.15;;;;;;;-7.30;100.00;102738.99;1704431;84;21129;-88
2022/03/17 05:48:22;;;;;;;22.82;10.32;;;;;;;-7.26;100.00;102734.04;1707152;84;21466;-87
2022/03/17 05:50:50;;;;;;;16.70;9.38;;;;;;;-7.23;100.00;102725.26;1674328;84;21066;-87
2022/03/17 05:53:17;;;;;;;15.75;8.85;;;;;;;-7.13;100.00;102722.22;1703727;83;21156;-88
2022/03/17 05:55:44;;;;;;;15.35;9.00;;;;;;;-6.99;100.00;102727.73;1661272;84;21031;-87
2022/03/17 05:58:11;;;;;;;16.57;9.28;;;;;;;-6.91;100.00;102725.42;1658718;84;21132;-86
2022/03/17 06:00:38;;;;;;;18.23;9.18;;;;;;;-6.87;100.00;102724.30;1658108;84;21817;-88
2022/03/17 06:03:06;;;;;;;18.20;9.20;;;;;;;-6.73;100.00;102725.16;1659281;84;21087;-88
2022/03/17 06:05:34;;;;;;;16.35;8.70;;;;;;;-6.60;100.00;102733.58;1664889;82;21165;-88
2022/03/17 06:08:02;;;;;;;17.35;9.50;;;;;;;-6.50;100.00;102727.98;1654689;83;21098;-91
2022/03/17 06:10:33;;;;;;;17.87;10.95;;;;;;;-6.42;100.00;102721.00;1659685;84;21118;-87
2022/03/17 06:13:05;;;;;;;19.02;11.03;;;;;;;-6.37;100.00;102727.06;1658050;84;21958;-86
2022/03/17 06:15:35;;;;;;;20.88;11.25;;;;;;;-6.29;100.00;102726.88;1648788;84;21667;-89
2022/03/17 06:18:07;;;;;;;22.00;11.55;;;;;;;-6.19;100.00;102729.25;1631862;86;21083;-89
2022/03/17 06:20:36;;;;;;;21.10;11.03;;;;;;;-6.12;100.00;102729.88;1631175;85;21576;-89
2022/03/17 06:23:11;;;;;;;49.60;20.52;;;;;;;-6.07;100.00;102719.47;1633531;82;21627;-90
2022/03/17 06:25:38;;;;;;;42.23;16.42;;;;;;;-6.03;100.00;102718.72;1652235;84;21133;-88
2022/03/17 06:28:08;;;;;;;15.80;8.70;;;;;;;-5.93;100.00;102725.30;1690787;83;21078;-87
2022/03/17 06:30:35;;;;;;;12.20;7.15;;;;;;;-5.89;100.00;102720.34;1661986;82;21057;-89
2022/03/17 06:33:05;;;;;;;24.67;12.37;;;;;;;-5.81;100.00;102720.95;1659443;84;21314;-90
2022/03/17 06:35:34;;;;;;;20.17;8.45;;;;;;;-5.76;100.00;102719.39;1659552;84;20962;-84
2022/03/17 06:38:06;;;;;;;17.87;7.45;;;;;;;-5.64;100.00;102703.23;1659457;84;21189;-90
2022/03/17 06:40:35;;;;;;;23.32;11.68;;;;;;;-5.50;100.00;102715.41;1660591;84;27759;-90
2022/03/17 06:55:12;;;;;;;15.32;8.78;;;;;;;-4.75;100.00;102714.66;1828546;78;22569;-88
2022/03/17 06:57:42;;;;;;;14.68;8.40;;;;;;;-4.68;100.00;102705.89;1796668;79;20953;-88
2022/03/17 07:00:13;;;;;;;24.05;9.60;;;;;;;-4.53;100.00;102701.16;1794840;79;21192;-87
2022/03/17 07:02:40;;;;;;;17.50;7.62;;;;;;;-4.32;100.00;102699.45;1777808;79;21085;-84
2022/03/17 07:05:09;;;;;;;16.82;7.50;;;;;;;-4.13;100.00;102704.48;1797240;79;21013;-90
2022/03/17 07:07:38;;;;;;;13.20;7.45;;;;;;;-4.06;100.00;102699.55;1772995;80;21016;-90
2022/03/17 07:10:07;;;;;;;12.25;7.65;;;;;;;-4.00;100.00;102700.93;1773282;80;20977;-91
2022/03/17 07:12:38;;;;;;;12.43;6.92;;;;;;;-3.98;94.27;102712.00;1786775;79;20950;-91
2022/03/17 07:15:08;;;;;;;12.65;6.97;;;;;;;-4.02;91.02;102695.81;1788887;78;20951;-90
2022/03/17 07:17:40;;;;;;;18.45;6.87;;;;;;;-4.01;94.22;102687.75;1702719;82;21638;-90
2022/03/17 07:20:15;;;;;;;14.50;7.50;;;;;;;-3.93;90.95;102686.64;1707319;82;21026;-90
2022/03/17 07:22:47;;;;;;;12.53;6.80;;;;;;;-3.89;90.99;102681.64;1718736;82;21687;-90
2022/03/17 07:25:17;;;;;;;8.45;5.67;;;;;;;-3.85;87.57;102691.03;1711477;82;21155;-90
2022/03/17 07:27:47;;;;;;;13.60;7.15;;;;;;;-3.86;85.74;102696.95;1721651;82;21042;-89
2022/03/17 07:30:20;;;;;;;11.68;7.30;;;;;;;-3.84;87.23;102684.23;1710115;82;21632;-86
2022/03/17 07:32:52;;;;;;;12.80;7.00;;;;;;;-3.76;87.49;102692.03;1726631;82;21024;-88
2022/03/17 07:35:20;;;;;;;9.65;5.65;;;;;;;-3.70;85.30;102670.48;1714407;82;21067;-86
2022/03/17 07:37:47;;;;;;;13.32;6.05;;;;;;;-3.65;85.38;102670.17;1729824;82;21157;-85
2022/03/17 07:40:13;;;;;;;15.98;7.85;;;;;;;-3.60;80.76;102681.28;1728466;82;21058;-86
2022/03/17 07:42:41;;;;;;;14.43;6.97;;;;;;;-3.56;84.44;102674.12;1728619;82;21157;-87
2022/03/17 07:45:16;;;;;;;8.60;5.05;;;;;;;-3.43;82.05;102681.98;1690321;82;21028;-87
2022/03/17 07:48:01;;;;;;;11.35;6.80;;;;;;;-3.38;77.56;102676.53;1718146;82;21072;-88
2022/03/17 07:50:28;;;;;;;10.85;6.20;;;;;;;-3.36;75.74;102682.52;1743557;80;21331;-89
2022/03/17 07:52:57;;;;;;;12.88;6.47;;;;;;;-3.32;77.96;102681.72;1747100;80;21073;-89
2022/03/17 07:55:25;;;;;;;10.10;6.22;;;;;;;-3.24;75.07;102690.78;1737173;81;21615;-88
2022/03/17 07:57:54;;;;;;;13.95;8.15;;;;;;;-3.28;72.70;102691.55;1720530;81;20989;-88
2022/03/17 08:00:21;;;;;;;11.38;6.90;;;;;;;-3.30;76.03;102681.34;1701057;82;21045;-88
2022/03/17 08:02:50;;;;;;;11.65;7.25;;;;;;;-3.21;76.59;102676.82;1719791;83;21054;-87
2022/03/17 08:05:17;;;;;;;12.93;7.20;;;;;;;-3.14;74.69;102683.72;1685812;83;21070;-87
2022/03/17 08:07:44;;;;;;;10.48;6.30;;;;;;;-3.09;74.75;102673.17;1722692;82;21086;-86
2022/03/17 08:10:15;;;;;;;9.23;6.50;;;;;;;-3.01;75.19;102665.65;1723073;82;21090;-88
2022/03/17 08:12:46;;;;;;;12.35;6.53;;;;;;;-2.91;73.37;102662.80;1707791;82;21020;-85
2022/03/17 08:23:58;;;;;;;14.33;7.08;;;;;;;-2.60;70.46;102655.12;1881755;75;21688;-86
2022/03/17 08:26:26;;;;;;;9.80;6.35;;;;;;;-2.63;70.38;102669.13;1855389;77;21072;-86
2022/03/17 08:28:53;;;;;;;10.05;5.58;;;;;;;-2.63;70.46;102658.93;1858025;75;21133;-87
2022/03/17 08:31:20;;;;;;;11.35;6.75;;;;;;;-2.60;71.33;102661.94;1824433;77;21041;-86
2022/03/17 08:33:46;;;;;;;10.38;5.55;;;;;;;-2.52;71.12;102646.73;1823415;77;21131;-85
2022/03/17 08:36:13;;;;;;;14.43;5.80;;;;;;;-2.43;71.42;102647.70;1830310;76;21532;-85
2022/03/17 08:38:41;;;;;;;9.65;6.40;;;;;;;-2.27;70.00;102651.70;1851421;76;20992;-88
2022/03/17 08:41:08;;;;;;;9.15;5.40;;;;;;;-2.22;68.69;102644.53;1851800;76;21224;-84
2022/03/17 08:43:35;;;;;;;10.20;6.28;;;;;;;-2.19;68.44;102644.11;1850961;77;21003;-87
2022/03/17 08:51:37;;;;;;;9.98;5.92;;;;;;;-2.16;66.44;102641.16;1850277;75;21037;-86
2022/03/17 08:54:04;;;;;;;6.95;4.83;;;;;;;-2.16;65.40;102642.88;1854628;75;21118;-87
2022/03/17 08:56:34;;;;;;;8.40;5.80;;;;;;;-2.18;65.12;102637.77;1877112;75;20966;-86
2022/03/17 08:59:04;;;;;;;10.80;6.42;;;;;;;-2.17;66.76;102630.55;1784518;78;21100;-85
2022/03/17 09:01:32;;;;;;;8.93;5.70;;;;;;;-2.03;67.35;102632.38;1781771;79;21049;-85
2022/03/17 09:04:00;;;;;;;10.55;5.87;;;;;;;-1.92;64.63;102653.34;1792092;78;21137;-88
2022/03/17 09:06:29;;;;;;;8.83;5.90;;;;;;;-1.92;64.69;102625.25;1762841;79;21281;-86
2022/03/17 09:08:56;;;;;;;5.80;4.30;;;;;;;-1.98;64.14;102637.97;1782641;79;21059;-88
2022/03/17 09:11:23;;;;;;;9.75;6.22;;;;;;;-2.00;64.00;102676.66;1796318;79;21537;-85
2022/03/17 09:13:50;;;;;;;7.97;5.33;;;;;;;-2.04;64.49;102650.64;1800534;79;21041;-84
2022/03/17 09:16:19;;;;;;;12.00;6.80;;;;;;;-2.06;63.80;102650.64;1794142;78;21049;-86
2022/03/17 09:18:48;;;;;;;8.23;5.60;;;;;;;-2.07;64.53;102648.08;1796981;79;21094;-85
2022/03/17 09:21:15;;;;;;;9.05;6.17;;;;;;;-2.04;64.14;102648.09;1797178;79;21630;-85
2022/03/17 09:23:42;;;;;;;10.65;6.33;;;;;;;-1.97;65.07;102643.91;1797542;79;21096;-85
2022/03/17 09:26:09;;;;;;;10.95;6.15;;;;;;;-1.84;64.44;102639.78;1811466;78;20991;-84
2022/03/17 09:28:36;;;;;;;9.53;5.62;;;;;;;-1.79;64.08;102641.55;1830770;77;21529;-86
2022/03/17 09:31:03;;;;;;;10.15;6.08;;;;;;;-1.73;64.35;102662.47;1797056;78;21183;-85
2022/03/17 09:33:30;;;;;;;9.98;6.33;;;;;;;-1.75;63.33;102653.48;1769512;79;20985;-84
2022/03/17 09:35:57;;;;;;;9.25;5.70;;;;;;;-1.76;63.72;102638.16;1768237;79;21098;-85
2022/03/17 09:38:24;;;;;;;13.62;6.28;;;;;;;-1.69;65.27;102645.03;1795654;79;21049;-84
2022/03/17 09:40:51;;;;;;;8.70;5.25;;;;;;;-1.60;65.09;102650.63;1777729;79;21529;-85
2022/03/17 09:43:19;;;;;;;10.38;5.75;;;;;;;-1.50;64.98;102643.91;1816803;77;21135;-85
2022/03/17 09:45:50;;;;;;;11.55;5.80;;;;;;;-1.35;63.63;102635.08;1806375;78;21537;-86
2022/03/17 09:48:25;;;;;;;10.25;5.67;;;;;;;-1.24;63.63;102640.27;1811566;77;21009;-85
2022/03/17 09:50:56;;;;;;;25.52;16.70;;;;;;;-1.20;62.69;102651.36;1816546;78;21065;-84
2022/03/17 09:53:25;;;;;;;9.98;5.80;;;;;;;-1.19;62.70;102653.08;1791059;79;21107;-85
2022/03/17 09:55:53;;;;;;;8.50;5.37;;;;;;;-1.13;63.19;102656.55;1798267;78;21172;-84
2022/03/17 09:58:20;;;;;;;9.15;5.42;;;;;;;-1.09;61.97;102662.94;1798100;78;21058;-85
2022/03/17 10:00:52;;;;;;;8.18;5.40;;;;;;;-1.21;61.19;102658.59;1797334;78;21114;-85
2022/03/17 10:03:29;;;;;;;10.13;5.05;;;;;;;-1.48;61.64;102665.20;1817978;78;21092;-85
2022/03/17 10:06:02;;;;;;;7.70;5.10;;;;;;;-1.71;61.88;102668.42;1766459;78;21069;-86
2022/03/17 10:08:31;;;;;;;9.10;5.30;;;;;;;-1.86;62.28;102662.77;1773648;78;21419;-85
2022/03/17 10:11:01;;;;;;;7.58;4.95;;;;;;;-1.82;62.88;102659.81;1800559;78;21088;-86
2022/03/17 10:13:31;;;;;;;9.25;5.62;;;;;;;-1.63;64.82;102655.73;1820184;77;20956;-85
2022/03/17 10:16:22;;;;;;;6.72;4.65;;;;;;;-1.38;65.20;102652.94;1817872;78;20993;-85
2022/03/17 10:19:03;;;;;;;12.20;5.87;;;;;;;-1.16;63.54;102651.84;1770560;78;21485;-86
2022/03/17 10:21:31;;;;;;;8.20;5.35;;;;;;;-0.99;61.92;102655.33;1776018;78;21080;-84
2022/03/17 10:24:06;;;;;;;8.95;5.40;;;;;;;-0.85;61.18;102659.25;1814529;77;21052;-82
2022/03/17 10:26:49;;;;;;;8.68;5.03;;;;;;;-0.68;61.05;102668.28;1794603;77;21084;-83
2022/03/17 10:29:22;;;;;;;9.15;5.22;;;;;;;-0.54;60.03;102660.67;1818331;77;21017;-83
2022/03/17 10:32:07;;;;;;;6.70;4.90;;;;;;;-0.54;58.29;102664.52;1796927;78;21625;-83
2022/03/17 10:34:55;;;;;;;7.22;4.58;;;;;;;-0.91;57.23;102663.47;1817602;78;21393;-83
2022/03/17 10:37:25;;;;;;;10.48;5.35;;;;;;;-1.40;58.71;102664.84;1768289;81;21060;-84
2022/03/17 10:52:56;;;;;;;13.38;5.65;;;;;;;-1.12;61.48;102648.44;1781533;79;22719;-81
2022/03/17 10:55:36;;;;;;;9.18;5.70;;;;;;;-1.07;60.13;102645.47;1751399;81;21025;-83
2022/03/17 10:58:20;;;;;;;9.20;5.78;;;;;;;-0.89;62.65;102654.11;1736840;81;22400;-85
2022/03/17 11:00:56;;;;;;;8.03;5.30;;;;;;;-0.81;60.80;102643.49;1759663;80;21102;-87
2022/03/17 11:03:26;;;;;;;9.03;4.17;;;;;;;-0.99;59.43;102651.92;1763151;79;21057;-86
2022/03/17 11:05:58;;;;;;;;;;;;;;;-1.29;59.63;102640.23;1768645;80;20954;-86
2022/03/17 11:08:28;;;;;;;16.65;9.15;;;;;;;-1.48;60.81;102635.81;1766636;80;20135;-86
2022/03/17 11:10:57;;;;;;;10.75;5.42;;;;;;;-1.44;62.69;102636.28;1765259;80;21869;-87
2022/03/17 11:13:26;;;;;;;12.15;6.45;;;;;;;-1.29;62.11;102638.95;1766094;80;21446;-86
2022/03/17 11:16:09;;;;;;;14.15;7.53;;;;;;;-1.32;60.45;102635.52;1761033;80;21093;-85
2022/03/17 11:18:40;;;;;;;33.83;11.05;;;;;;;-1.42;61.12;102640.99;1745920;80;21019;-86
2022/03/17 11:21:20;;;;;;;10.80;5.85;;;;;;;-1.48;60.75;102649.87;1786501;79;21633;-87
2022/03/17 11:24:00;;;;;;;11.63;6.17;;;;;;;-1.54;62.21;102644.31;1783277;80;21865;-85
2022/03/17 11:26:40;;;;;;;8.40;5.42;;;;;;;-1.41;62.63;102637.59;1775252;79;21061;-86
2022/03/17 11:29:14;;;;;;;11.65;6.50;;;;;;;-1.33;60.95;102648.73;1758279;80;21049;-88
2022/03/17 11:32:02;;;;;;;9.80;6.00;;;;;;;-1.54;61.39;102649.83;1758201;81;21037;-86
2022/03/17 11:34:48;;;;;;;23.87;8.43;;;;;;;-1.68;62.43;102644.63;1776737;79;21544;-86
2022/03/17 11:37:27;;;;;;;13.78;6.08;;;;;;;-1.76;61.17;102661.98;1802768;78;21418;-86
2022/03/17 11:40:14;;;;;;;9.50;5.50;;;;;;;-1.77;61.89;102644.10;1795925;78;21036;-85
2022/03/17 11:42:56;;;;;;;18.32;11.03;;;;;;;-1.66;62.50;102629.73;1776601;79;21069;-86
2022/03/17 11:45:30;;;;;;;10.45;6.33;;;;;;;-1.55;63.42;102632.38;1755831;80;21546;-86
2022/03/17 11:48:02;;;;;;;9.55;6.00;;;;;;;-1.43;61.37;102638.84;1755513;81;21048;-86
2022/03/17 11:50:40;;;;;;;10.03;6.15;;;;;;;-1.32;62.17;102649.14;1750333;81;21204;-87
2022/03/17 11:53:52;;;;;;;8.03;5.30;;;;;;;-1.22;60.73;102649.21;1788432;79;21037;-87
2022/03/17 11:56:35;;;;;;;11.30;6.47;;;;;;;-1.21;61.21;102644.13;1762844;79;21762;-86
2022/03/17 11:59:02;;;;;;;8.88;6.42;;;;;;;-1.08;59.30;102643.76;1779322;80;20980;-87
2022/03/17 12:01:36;;;;;;;11.78;8.23;;;;;;;-0.98;60.39;102635.30;1766770;80;21081;-87
2022/03/17 12:04:04;;;;;;;12.35;5.53;;;;;;;-0.85;60.90;102645.62;1755311;79;21569;-86
2022/03/17 12:06:36;;;;;;;9.95;5.85;;;;;;;-0.88;57.91;102645.59;1782167;79;21063;-87
2022/03/17 12:09:07;;;;;;;16.48;9.70;;;;;;;-1.09;57.50;102645.03;1784440;79;21002;-88
2022/03/17 12:11:43;;;;;;;13.25;8.38;;;;;;;-1.24;59.70;102637.70;1736590;82;21114;-86